createdAt,value
2018-10-05T00:00:40.988Z,9.50
2018-10-05T00:03:22.153Z,9.07
2018-10-05T00:06:03.737Z,11.67
2018-10-05T00:08:45.581Z,9.20
2018-10-05T00:11:26.850Z,8.90
2018-10-05T00:14:08.854Z,11.03
2018-10-05T00:16:50.200Z,6.70
2018-10-05T00:19:31.691Z,7.53
2018-10-05T00:22:13.292Z,8.63
2018-10-05T00:24:54.933Z,7.20
2018-10-05T00:27:36.559Z,11.27
2018-10-05T00:30:17.883Z,9.00
2018-10-05T00:33:00.271Z,13.70
2018-10-05T00:35:42.362Z,10.53
2018-10-05T00:38:24.020Z,11.47
2018-10-05T00:41:05.726Z,7.00
2018-10-05T00:43:47.727Z,12.30
2018-10-05T00:46:29.494Z,7.23
2018-10-05T00:49:11.174Z,9.70
2018-10-05T00:51:53.929Z,9.73
2018-10-05T00:54:35.615Z,11.77
2018-10-05T00:57:17.409Z,9.43
2018-10-05T00:59:59.203Z,11.43
2018-10-05T01:02:40.866Z,11.57
2018-10-05T01:05:22.668Z,16.73
2018-10-05T01:08:04.326Z,10.57
2018-10-05T01:10:45.748Z,10.23
2018-10-05T01:13:27.574Z,10.40
2018-10-05T01:16:09.021Z,10.67
2018-10-05T01:18:50.782Z,9.10
2018-10-05T01:21:32.481Z,8.47
2018-10-05T01:24:14.143Z,13.83
2018-10-05T01:26:55.575Z,7.03
2018-10-05T01:29:37.179Z,8.80
2018-10-05T01:32:18.635Z,9.63
2018-10-05T01:35:00.304Z,6.60
2018-10-05T01:37:42.210Z,13.13
2018-10-05T01:40:24.744Z,6.00
2018-10-05T01:43:05.649Z,7.97
2018-10-05T01:45:47.299Z,11.47
2018-10-05T01:48:29.081Z,7.77
2018-10-05T01:51:10.998Z,10.37
2018-10-05T01:53:52.386Z,9.90
2018-10-05T01:56:34.694Z,17.03
2018-10-05T01:59:15.560Z,11.30
2018-10-05T02:01:57.196Z,19.83
2018-10-05T02:04:38.934Z,9.67
2018-10-05T02:07:20.576Z,9.23
2018-10-05T02:10:02.251Z,10.60
2018-10-05T02:12:44.144Z,13.13
2018-10-05T02:15:25.664Z,11.67
2018-10-05T02:18:06.630Z,9.97
2018-10-05T02:20:48.248Z,7.20
2018-10-05T02:23:29.822Z,10.60
2018-10-05T02:26:11.734Z,7.47
2018-10-05T02:28:53.300Z,10.17
2018-10-05T02:31:35.055Z,15.03
2018-10-05T02:34:16.605Z,10.33
2018-10-05T02:36:59.265Z,9.80
2018-10-05T02:39:40.111Z,8.33
2018-10-05T02:42:21.798Z,11.37
2018-10-05T02:45:03.495Z,9.33
2018-10-05T02:47:45.075Z,9.77
2018-10-05T02:50:26.996Z,8.40
2018-10-05T02:53:08.263Z,8.10
2018-10-05T02:55:49.154Z,10.17
2018-10-05T02:58:30.738Z,6.63
2018-10-05T03:01:12.424Z,9.70
2018-10-05T03:03:53.843Z,7.13
2018-10-05T03:06:35.948Z,6.67
2018-10-05T03:09:17.502Z,9.77
2018-10-05T03:11:58.594Z,8.00
2018-10-05T03:14:40.260Z,7.30
2018-10-05T03:17:21.868Z,10.10
2018-10-05T03:20:03.345Z,6.30
2018-10-05T03:24:13.779Z,10.17
2018-10-05T03:26:54.489Z,6.17
2018-10-05T03:29:36.261Z,7.00
2018-10-05T03:32:17.880Z,4.90
2018-10-05T03:34:59.669Z,19.00
2018-10-05T03:37:41.281Z,9.90
2018-10-05T03:40:22.929Z,6.10
2018-10-05T03:43:04.284Z,7.80
2018-10-05T03:45:45.874Z,6.83
2018-10-05T03:48:27.488Z,11.33
2018-10-05T03:51:09.229Z,5.17
2018-10-05T03:53:50.785Z,7.20
2018-10-05T03:56:32.235Z,7.27
2018-10-05T03:59:13.734Z,5.40
2018-10-05T04:01:55.468Z,8.80
2018-10-05T04:04:37.039Z,9.20
2018-10-05T04:07:18.713Z,7.00
2018-10-05T04:10:00.339Z,5.17
2018-10-05T04:12:42.013Z,12.87
2018-10-05T04:15:23.473Z,6.80
2018-10-05T04:18:05.507Z,9.47
2018-10-05T04:20:46.813Z,6.30
2018-10-05T04:23:28.382Z,6.13
2018-10-05T04:26:10.883Z,5.43
2018-10-05T04:28:51.675Z,8.87
2018-10-05T04:31:33.703Z,9.27
2018-10-05T04:34:14.932Z,8.63
2018-10-05T04:36:56.647Z,7.07
2018-10-05T04:39:38.205Z,4.90
2018-10-05T04:42:19.757Z,15.23
2018-10-05T04:45:01.169Z,6.73
2018-10-05T04:47:42.849Z,8.20
2018-10-05T04:50:24.760Z,27.97
2018-10-05T04:53:06.343Z,61.47
2018-10-05T04:55:47.869Z,55.93
2018-10-05T04:58:29.696Z,61.03
2018-10-05T05:01:11.192Z,39.10
2018-10-05T05:03:52.911Z,59.63
2018-10-05T05:06:34.818Z,23.00
2018-10-05T05:09:16.436Z,19.23
2018-10-05T05:11:57.177Z,12.50
2018-10-05T05:14:38.808Z,17.43
2018-10-05T05:17:20.523Z,28.93
2018-10-05T05:20:01.944Z,12.23
2018-10-05T05:22:43.792Z,17.60
2018-10-05T05:25:25.608Z,14.03
2018-10-05T05:28:06.720Z,15.10
2018-10-05T05:30:48.634Z,7.70
2018-10-05T05:33:29.782Z,8.70
2018-10-05T05:36:11.289Z,16.60
2018-10-05T05:38:53.102Z,12.27
2018-10-05T05:41:34.795Z,15.47
2018-10-05T05:44:16.448Z,20.83
2018-10-05T05:46:58.045Z,27.07
2018-10-05T05:49:39.577Z,25.50
2018-10-05T05:52:21.174Z,27.27
2018-10-05T05:55:02.869Z,22.63
2018-10-05T05:57:44.589Z,19.30
2018-10-05T06:00:25.989Z,24.50
2018-10-05T06:03:08.611Z,8.03
2018-10-05T06:05:50.205Z,5.90
2018-10-05T06:08:32.055Z,8.67
2018-10-05T06:11:13.602Z,4.80
2018-10-05T06:13:55.219Z,7.90
2018-10-05T06:16:37.032Z,11.13
2018-10-05T06:19:18.768Z,7.43
2018-10-05T06:22:00.638Z,8.70
2018-10-05T06:24:42.189Z,6.57
2018-10-05T06:27:23.746Z,13.43
2018-10-05T06:30:05.645Z,10.63
2018-10-05T06:32:47.133Z,9.87
2018-10-05T06:35:28.579Z,12.10
2018-10-05T06:38:10.111Z,13.77
2018-10-05T06:40:57.581Z,30.97
2018-10-05T06:43:39.496Z,42.70
2018-10-05T06:46:24.676Z,27.60
2018-10-05T06:49:05.981Z,14.43
2018-10-05T06:51:47.757Z,28.27
2018-10-05T06:54:29.195Z,32.00
2018-10-05T06:57:10.963Z,40.50
2018-10-05T06:59:52.474Z,33.63
2018-10-05T07:02:34.101Z,32.80
2018-10-05T07:05:15.908Z,32.27
2018-10-05T07:07:58.495Z,26.90
2018-10-05T07:10:40.064Z,13.60
2018-10-05T07:13:21.618Z,30.07
2018-10-05T07:16:03.209Z,48.30
2018-10-05T07:18:44.843Z,43.80
2018-10-05T07:21:26.662Z,26.13
2018-10-05T07:24:08.165Z,21.83
2018-10-05T07:26:49.913Z,24.37
2018-10-05T07:29:31.687Z,12.53
2018-10-05T07:32:13.264Z,8.60
2018-10-05T07:34:56.010Z,8.20
2018-10-05T07:37:37.725Z,7.43
2018-10-05T07:40:19.430Z,10.50
2018-10-05T07:43:01.416Z,9.10
2018-10-05T07:45:42.481Z,11.03
2018-10-05T07:48:23.972Z,10.10
2018-10-05T07:51:05.418Z,10.00
2018-10-05T07:53:47.568Z,10.73
2018-10-05T07:56:30.126Z,8.37
2018-10-05T07:59:11.295Z,8.47
2018-10-05T08:01:53.131Z,4.60
2018-10-05T08:04:34.411Z,8.20
2018-10-05T08:07:16.248Z,6.40
2018-10-05T08:09:57.594Z,10.83
2018-10-05T08:12:39.554Z,8.80
2018-10-05T08:15:20.956Z,6.93
2018-10-05T08:18:02.299Z,14.60
2018-10-05T08:20:43.857Z,8.57
2018-10-05T08:23:25.562Z,9.90
2018-10-05T08:26:07.445Z,11.33
2018-10-05T08:28:49.187Z,6.53
2018-10-05T08:31:35.546Z,8.43
2018-10-05T08:34:16.482Z,4.20
2018-10-05T08:36:58.067Z,5.77
2018-10-05T08:39:39.709Z,10.20
2018-10-05T08:42:21.685Z,7.83
2018-10-05T08:45:02.785Z,6.33
2018-10-05T08:50:31.826Z,8.90
2018-10-05T08:53:13.468Z,6.03
2018-10-05T08:55:55.405Z,3.70
2018-10-05T08:58:36.846Z,9.33
2018-10-05T09:01:18.585Z,4.40
2018-10-05T09:04:00.106Z,6.77
2018-10-05T09:06:48.091Z,5.80
2018-10-05T09:09:29.593Z,7.80
2018-10-05T09:12:11.332Z,8.20
2018-10-05T09:14:53.473Z,6.57
2018-10-05T09:17:34.468Z,5.20
2018-10-05T09:20:16.164Z,5.97
2018-10-05T09:22:57.650Z,5.40
2018-10-05T09:25:39.430Z,7.00
2018-10-05T09:28:20.972Z,9.07
2018-10-05T09:31:01.691Z,5.33
2018-10-05T09:33:42.569Z,6.67
2018-10-05T09:36:24.140Z,4.63
2018-10-05T09:39:05.784Z,8.73
2018-10-05T09:41:47.416Z,6.10
2018-10-05T09:44:29.109Z,12.40
2018-10-05T09:47:10.766Z,8.10
2018-10-05T09:49:52.334Z,5.33
2018-10-05T09:52:34.014Z,14.20
2018-10-05T09:55:15.716Z,4.60
2018-10-05T09:57:57.697Z,6.53
2018-10-05T10:00:43.960Z,10.90
2018-10-05T10:03:31.859Z,9.33
2018-10-05T10:06:13.065Z,9.13
2018-10-05T10:08:54.720Z,10.40
2018-10-05T10:11:37.017Z,10.60
2018-10-05T10:14:17.873Z,7.50
2018-10-05T10:17:00.122Z,12.60
2018-10-05T10:19:47.232Z,11.70
2018-10-05T10:22:28.416Z,11.30
2018-10-05T10:25:10.177Z,11.63
2018-10-05T10:27:51.812Z,11.13
2018-10-05T10:30:33.608Z,8.37
2018-10-05T10:33:15.100Z,9.57
2018-10-05T10:35:56.625Z,11.27
2018-10-05T10:38:38.275Z,6.77
2018-10-05T10:41:20.032Z,10.97
2018-10-05T10:44:01.593Z,9.27
2018-10-05T10:46:50.981Z,5.07
2018-10-05T10:49:31.685Z,8.40
2018-10-05T10:52:13.371Z,8.60
2018-10-05T10:54:54.954Z,7.13
2018-10-05T10:57:36.628Z,8.60
2018-10-05T11:00:17.472Z,8.80
2018-10-05T11:02:59.303Z,7.60
2018-10-05T11:05:41.987Z,14.63
2018-10-05T11:08:24.006Z,8.97
2018-10-05T11:11:05.157Z,11.10
2018-10-05T11:16:34.524Z,9.57
2018-10-05T11:19:15.409Z,12.23
2018-10-05T11:21:56.822Z,9.57
2018-10-05T11:24:38.162Z,8.67
2018-10-05T11:27:19.721Z,9.90
2018-10-05T11:30:01.853Z,6.87
2018-10-05T11:32:43.364Z,5.23
2018-10-05T11:35:24.878Z,6.80
2018-10-05T11:38:06.450Z,11.63
2018-10-05T11:40:48.130Z,11.57
2018-10-05T11:43:29.184Z,9.23
2018-10-05T11:46:10.674Z,10.73
2018-10-05T11:48:52.285Z,12.97
2018-10-05T11:51:33.758Z,8.97
2018-10-05T11:54:15.707Z,8.40
2018-10-05T11:56:57.712Z,11.30
2018-10-05T11:59:38.541Z,11.20
2018-10-05T12:02:20.101Z,6.60
2018-10-05T12:05:01.593Z,8.87
2018-10-05T12:07:43.430Z,8.67
2018-10-05T12:10:24.832Z,15.20
2018-10-05T12:13:06.711Z,16.27
2018-10-05T12:15:47.712Z,10.10
2018-10-05T12:18:29.737Z,18.00
2018-10-05T12:21:12.173Z,9.63
2018-10-05T12:23:53.751Z,14.33
2018-10-05T12:26:35.444Z,19.20
2018-10-05T12:29:17.178Z,14.67
2018-10-05T12:31:58.734Z,11.50
2018-10-05T12:34:40.524Z,12.40
2018-10-05T12:37:21.795Z,9.17
2018-10-05T12:40:03.210Z,14.43
2018-10-05T12:42:44.761Z,8.50
2018-10-05T12:45:27.587Z,8.87
2018-10-05T12:48:08.885Z,32.27
2018-10-05T12:50:50.389Z,26.13
2018-10-05T12:53:32.075Z,29.83
2018-10-05T12:56:14.509Z,18.70
2018-10-05T12:58:56.259Z,9.07
2018-10-05T13:01:37.904Z,8.00
2018-10-05T13:04:19.558Z,14.40
2018-10-05T13:07:01.100Z,9.37
2018-10-05T13:09:42.671Z,25.57
2018-10-05T13:12:24.733Z,13.00
2018-10-05T13:15:05.817Z,15.03
2018-10-05T13:17:47.637Z,17.97
2018-10-05T13:20:29.059Z,11.70
2018-10-05T13:23:11.499Z,13.60
2018-10-05T13:25:53.507Z,8.90
2018-10-05T13:28:34.894Z,16.33
2018-10-05T13:31:16.340Z,12.37
2018-10-05T13:33:57.840Z,13.40
2018-10-05T13:36:39.379Z,11.30
2018-10-05T13:39:21.176Z,11.20
2018-10-05T13:42:08.966Z,12.63
2018-10-05T13:44:50.274Z,11.60
2018-10-05T13:47:31.844Z,11.60
2018-10-05T13:50:14.090Z,10.30
2018-10-05T13:52:55.181Z,8.63
2018-10-05T13:55:36.612Z,9.33
2018-10-05T13:58:18.232Z,10.87
2018-10-05T14:00:59.824Z,11.77
2018-10-05T14:03:41.898Z,9.00
2018-10-05T14:06:22.674Z,11.80
2018-10-05T14:09:05.179Z,12.13
2018-10-05T14:11:46.942Z,8.10
2018-10-05T14:14:28.557Z,12.67
2018-10-05T14:17:10.179Z,12.03
2018-10-05T14:19:51.603Z,9.73
2018-10-05T14:22:34.079Z,14.03
2018-10-05T14:25:15.668Z,8.73
2018-10-05T14:27:57.331Z,11.90
2018-10-05T14:30:38.110Z,14.03
2018-10-05T14:33:20.270Z,7.63
2018-10-05T14:36:01.435Z,9.70
2018-10-05T14:38:42.126Z,10.90
2018-10-05T14:41:23.717Z,9.97
2018-10-05T14:44:05.400Z,7.87
2018-10-05T14:46:46.926Z,12.13
2018-10-05T14:49:27.868Z,23.73
2018-10-05T14:52:09.221Z,7.93
2018-10-05T14:54:50.760Z,9.73
2018-10-05T14:57:32.524Z,15.60
2018-10-05T15:00:13.996Z,11.90
2018-10-05T15:02:55.585Z,10.77
2018-10-05T15:05:37.022Z,7.20
2018-10-05T15:08:18.479Z,9.50
2018-10-05T15:11:01.045Z,6.90
2018-10-05T15:13:42.667Z,6.20
2018-10-05T15:16:24.157Z,11.70
2018-10-05T15:19:05.918Z,13.03
2018-10-05T15:21:47.462Z,8.50
2018-10-05T15:24:28.429Z,11.50
2018-10-05T15:27:10.289Z,8.30
2018-10-05T15:29:52.145Z,10.10
2018-10-05T15:32:33.598Z,8.23
2018-10-05T15:35:15.286Z,14.03
2018-10-05T15:37:56.981Z,12.13
2018-10-05T15:40:38.790Z,7.37
2018-10-05T15:43:19.751Z,14.33
2018-10-05T15:46:01.200Z,12.90
2018-10-05T15:48:42.876Z,10.13
2018-10-05T15:51:23.842Z,11.57
2018-10-05T15:54:05.342Z,21.17
2018-10-05T15:56:46.889Z,10.60
2018-10-05T15:59:30.027Z,15.23
2018-10-05T16:02:11.080Z,10.97
2018-10-05T16:04:52.827Z,10.17
2018-10-05T16:07:34.215Z,9.73
2018-10-05T16:10:15.211Z,10.03
2018-10-05T16:12:56.867Z,12.93
2018-10-05T16:15:38.305Z,8.20
2018-10-05T16:18:19.691Z,13.17
2018-10-05T16:21:01.499Z,13.80
2018-10-05T16:23:42.993Z,17.13
2018-10-05T16:26:27.165Z,11.97
2018-10-05T16:29:08.021Z,9.10
2018-10-05T16:31:50.528Z,11.10
2018-10-05T16:34:33.180Z,14.43
2018-10-05T16:37:14.953Z,12.77
2018-10-05T16:39:56.317Z,14.73
2018-10-05T16:42:37.795Z,11.90
2018-10-05T16:45:19.201Z,14.07
2018-10-05T16:48:00.778Z,16.80
2018-10-05T16:50:43.222Z,17.07
2018-10-05T16:53:25.029Z,16.63
2018-10-05T16:56:05.995Z,10.47
2018-10-05T16:58:47.912Z,8.60
2018-10-05T17:01:29.400Z,22.63
2018-10-05T17:04:11.949Z,20.33
2018-10-05T17:06:53.542Z,13.90
2018-10-05T17:09:35.142Z,11.80
2018-10-05T17:12:17.900Z,11.10
2018-10-05T17:14:59.723Z,10.10
2018-10-05T17:17:41.413Z,8.30
2018-10-05T17:20:23.235Z,17.30
2018-10-05T17:23:04.627Z,13.90
2018-10-05T17:25:47.195Z,17.60
2018-10-05T17:28:28.983Z,12.77
2018-10-05T17:31:10.442Z,7.43
2018-10-05T17:33:53.972Z,16.30
2018-10-05T17:36:34.929Z,14.83
2018-10-05T17:39:16.626Z,8.90
2018-10-05T17:41:58.260Z,13.23
2018-10-05T17:44:39.818Z,14.87
2018-10-05T17:47:21.438Z,11.60
2018-10-05T17:50:02.698Z,15.53
2018-10-05T17:52:44.333Z,11.77
2018-10-05T17:55:26.329Z,10.70
2018-10-05T17:58:07.637Z,10.87
2018-10-05T18:00:49.169Z,8.37
2018-10-05T18:03:31.520Z,12.53
2018-10-05T18:06:13.254Z,11.13
2018-10-05T18:08:55.114Z,10.70
2018-10-05T18:11:36.555Z,19.63
2018-10-05T18:14:18.114Z,16.37
2018-10-05T18:16:59.837Z,20.93
2018-10-05T18:19:41.418Z,13.30
2018-10-05T18:22:23.328Z,11.10
2018-10-05T18:25:04.932Z,10.97
2018-10-05T18:27:46.535Z,12.10
2018-10-05T18:30:28.285Z,11.53
2018-10-05T18:33:09.939Z,8.63
2018-10-05T18:35:51.470Z,7.50
2018-10-05T18:38:33.147Z,9.63
2018-10-05T18:41:14.801Z,14.17
2018-10-05T18:43:56.286Z,12.43
2018-10-05T18:46:38.177Z,8.57
2018-10-05T18:49:19.622Z,11.37
2018-10-05T18:52:01.120Z,15.03
2018-10-05T18:54:42.830Z,26.70
2018-10-05T18:57:24.816Z,21.30
2018-10-05T19:00:06.011Z,33.93
2018-10-05T19:02:47.490Z,37.40
2018-10-05T19:05:29.921Z,40.07
2018-10-05T19:08:11.683Z,33.10
2018-10-05T19:10:52.980Z,31.83
2018-10-05T19:13:34.710Z,22.17
2018-10-05T19:16:16.638Z,21.53
2018-10-05T19:18:58.212Z,28.23
2018-10-05T19:21:39.650Z,25.77
2018-10-05T19:24:21.211Z,16.63
2018-10-05T19:27:02.158Z,20.27
2018-10-05T19:29:43.760Z,35.87
2018-10-05T19:32:25.369Z,18.60
2018-10-05T19:35:06.975Z,18.03
2018-10-05T19:37:48.686Z,19.67
2018-10-05T19:40:30.211Z,24.10
2018-10-05T19:43:11.911Z,20.23
2018-10-05T19:45:53.513Z,22.60
2018-10-05T19:48:35.088Z,14.43
2018-10-05T19:51:16.882Z,28.40
2018-10-05T19:53:58.592Z,19.37
2018-10-05T19:59:47.998Z,22.60
2018-10-05T20:02:30.401Z,15.73
2018-10-05T20:05:12.038Z,18.03
2018-10-05T20:07:53.676Z,11.60
2018-10-05T20:10:36.379Z,11.00
2018-10-05T20:13:17.946Z,10.77
2018-10-05T20:15:59.741Z,9.70
2018-10-05T20:21:49.409Z,10.27
2018-10-05T20:24:30.961Z,9.47
2018-10-05T20:27:12.990Z,10.77
2018-10-05T20:29:54.136Z,6.97
2018-10-05T20:32:35.854Z,6.57
2018-10-05T20:35:17.699Z,6.83
2018-10-05T20:37:59.392Z,7.43
2018-10-05T20:40:41.002Z,12.17
2018-10-05T20:43:22.894Z,13.03
2018-10-05T20:46:04.423Z,6.67
2018-10-05T20:48:46.264Z,16.53
2018-10-05T20:51:27.853Z,8.17
2018-10-05T20:54:09.434Z,8.50
2018-10-05T20:56:51.138Z,25.43
2018-10-05T20:59:32.830Z,13.07
2018-10-05T21:02:14.579Z,11.87
2018-10-05T21:04:56.218Z,10.83
2018-10-05T21:07:37.698Z,12.47
2018-10-05T21:10:19.585Z,10.43
2018-10-05T21:13:01.229Z,15.43
2018-10-05T21:15:42.989Z,8.73
2018-10-05T21:18:24.591Z,17.70
2018-10-05T21:21:06.171Z,9.47
2018-10-05T21:23:47.712Z,16.93
2018-10-05T21:26:29.453Z,8.20
2018-10-05T21:29:11.027Z,14.33
2018-10-05T21:31:52.547Z,20.13
2018-10-05T21:34:34.338Z,21.00
2018-10-05T21:37:15.881Z,15.60
2018-10-05T21:43:15.557Z,11.37
2018-10-05T21:45:57.141Z,11.70
2018-10-05T21:48:39.202Z,17.93
2018-10-05T21:51:20.308Z,17.90
2018-10-05T21:54:01.921Z,24.57
2018-10-05T21:56:43.468Z,16.10
2018-10-05T21:59:25.116Z,14.70
2018-10-05T22:02:06.828Z,14.80
2018-10-05T22:04:48.321Z,10.60
2018-10-05T22:07:30.019Z,9.50
2018-10-05T22:10:11.864Z,10.70
2018-10-05T22:12:53.525Z,21.37
2018-10-05T22:15:35.408Z,11.37
2018-10-05T22:18:16.664Z,9.10
2018-10-05T22:20:58.019Z,10.43
2018-10-05T22:23:40.697Z,6.10
2018-10-05T22:26:22.895Z,6.50
2018-10-05T22:29:03.901Z,7.27
2018-10-05T22:31:45.645Z,12.37
2018-10-05T22:34:26.412Z,8.77
2018-10-05T22:37:08.093Z,9.23
2018-10-05T22:39:49.716Z,9.00
2018-10-05T22:42:31.468Z,9.93
2018-10-05T22:45:12.980Z,9.73
2018-10-05T22:47:54.756Z,10.00
2018-10-05T22:50:36.422Z,13.37
2018-10-05T22:53:18.097Z,8.57
2018-10-05T22:55:59.578Z,9.30
2018-10-05T22:58:40.629Z,9.73
2018-10-05T23:01:22.444Z,12.20
2018-10-05T23:04:03.847Z,7.20
2018-10-05T23:06:45.277Z,7.10
2018-10-05T23:09:27.051Z,6.20
2018-10-05T23:12:08.097Z,8.43
2018-10-05T23:14:49.396Z,6.50
2018-10-05T23:17:30.994Z,6.90
2018-10-05T23:20:13.530Z,8.60
2018-10-05T23:22:55.232Z,5.67
2018-10-05T23:25:37.019Z,8.67
2018-10-05T23:28:18.654Z,7.20
2018-10-05T23:31:01.043Z,11.60
2018-10-05T23:33:41.879Z,6.20
2018-10-05T23:36:23.633Z,5.80
2018-10-05T23:39:05.424Z,8.10
2018-10-05T23:41:46.808Z,10.47
2018-10-05T23:44:28.700Z,11.83
2018-10-05T23:47:09.898Z,18.57
2018-10-05T23:49:51.352Z,5.90
2018-10-05T23:52:33.144Z,8.20
2018-10-05T23:55:14.489Z,7.33
2018-10-05T23:57:55.608Z,8.33
